createdAt,value
2023-02-11T00:00:32.222Z,35.00
2023-02-11T00:02:40.086Z,32.72
2023-02-11T00:04:48.467Z,33.95
2023-02-11T00:06:56.287Z,33.60
2023-02-11T00:09:04.657Z,35.15
2023-02-11T00:11:16.572Z,34.42
2023-02-11T00:13:24.652Z,32.42
2023-02-11T00:15:35.353Z,36.05
2023-02-11T00:17:43.436Z,34.42
2023-02-11T00:19:52.842Z,32.25
2023-02-11T00:22:00.749Z,33.13
2023-02-11T00:24:09.305Z,32.05
2023-02-11T00:26:18.721Z,32.42
2023-02-11T00:28:27.889Z,33.75
2023-02-11T00:30:38.611Z,33.15
2023-02-11T00:32:46.493Z,35.85
2023-02-11T00:34:55.500Z,32.22
2023-02-11T00:37:03.318Z,32.60
2023-02-11T00:39:11.833Z,33.20
2023-02-11T00:41:37.262Z,35.05
2023-02-11T00:43:45.934Z,33.42
2023-02-11T00:45:56.557Z,36.08
2023-02-11T00:48:04.829Z,35.38
2023-02-11T00:50:15.814Z,33.13
2023-02-11T00:52:23.794Z,34.42
2023-02-11T00:54:31.708Z,32.95
2023-02-11T00:56:39.613Z,33.88
2023-02-11T00:58:47.577Z,33.35
2023-02-11T01:00:58.789Z,33.92
2023-02-11T01:03:07.181Z,33.90
2023-02-11T01:05:14.989Z,34.83
2023-02-11T01:07:22.982Z,33.08
2023-02-11T01:09:30.932Z,34.75
2023-02-11T01:11:40.045Z,34.60
2023-02-11T01:13:49.149Z,33.10
2023-02-11T01:15:59.898Z,33.90
2023-02-11T01:18:08.537Z,33.45
2023-02-11T01:20:18.960Z,35.42
2023-02-11T01:22:26.763Z,33.42
2023-02-11T01:24:34.729Z,34.03
2023-02-11T01:26:42.923Z,34.88
2023-02-11T01:28:51.062Z,33.53
2023-02-11T01:31:02.912Z,35.92
2023-02-11T01:33:10.783Z,33.35
2023-02-11T01:35:18.777Z,31.58
2023-02-11T01:37:27.416Z,34.95
2023-02-11T01:39:36.148Z,33.22
2023-02-11T01:41:43.878Z,34.85
2023-02-11T01:43:52.942Z,35.33
2023-02-11T01:46:08.338Z,35.45
2023-02-11T01:48:20.154Z,35.10
2023-02-11T01:50:31.397Z,33.15
2023-02-11T01:52:43.239Z,30.83
2023-02-11T01:55:07.836Z,33.60
2023-02-11T01:57:24.904Z,33.60
2023-02-11T01:59:37.709Z,33.00
2023-02-11T02:01:55.689Z,32.72
2023-02-11T02:04:06.234Z,34.92
2023-02-11T02:06:22.998Z,33.50
2023-02-11T02:08:37.959Z,33.85
2023-02-11T02:10:56.628Z,33.97
2023-02-11T02:13:04.701Z,33.95
2023-02-11T02:15:25.542Z,33.50
2023-02-11T02:17:45.833Z,35.60
2023-02-11T02:20:15.197Z,33.05
2023-02-11T02:23:05.773Z,33.90
2023-02-11T02:25:31.341Z,33.90
2023-02-11T02:27:48.682Z,34.85
2023-02-11T02:30:21.342Z,32.83
2023-02-11T02:32:53.168Z,32.60
2023-02-11T02:35:09.723Z,32.60
2023-02-11T02:37:29.559Z,33.00
2023-02-11T02:39:39.431Z,33.55
2023-02-11T02:41:48.860Z,34.17
2023-02-11T02:43:57.240Z,31.80
2023-02-11T02:46:19.111Z,33.90
2023-02-11T02:48:37.361Z,33.28
2023-02-11T02:50:45.530Z,30.25
2023-02-11T02:53:02.778Z,33.58
2023-02-11T02:55:20.787Z,32.83
2023-02-11T02:57:38.824Z,33.13
2023-02-11T02:59:58.810Z,30.75
2023-02-11T03:02:16.324Z,31.38
2023-02-11T03:04:35.034Z,33.78
2023-02-11T03:06:51.222Z,31.52
2023-02-11T03:09:06.037Z,32.90
2023-02-11T03:11:16.057Z,31.88
2023-02-11T03:13:28.250Z,34.08
2023-02-11T03:15:42.867Z,32.58
2023-02-11T03:17:54.906Z,34.10
2023-02-11T03:20:07.815Z,34.47
2023-02-11T03:22:22.137Z,32.30
2023-02-11T03:24:34.815Z,32.97
2023-02-11T03:26:47.516Z,34.30
2023-02-11T03:29:03.896Z,34.40
2023-02-11T03:31:21.025Z,33.92
2023-02-11T03:33:35.612Z,33.35
2023-02-11T03:35:55.991Z,32.38
2023-02-11T03:38:08.485Z,33.15
2023-02-11T03:40:20.348Z,33.83
2023-02-11T03:42:33.064Z,32.17
2023-02-11T03:44:47.358Z,32.90
2023-02-11T03:46:57.442Z,34.38
2023-02-11T03:49:09.435Z,32.40
2023-02-11T03:51:44.061Z,32.33
2023-02-11T03:53:58.087Z,32.72
2023-02-11T03:56:10.451Z,33.08
2023-02-11T03:58:18.431Z,32.42
2023-02-11T04:00:33.179Z,31.02
2023-02-11T04:02:42.238Z,32.58
2023-02-11T04:04:50.539Z,31.63
2023-02-11T04:07:01.053Z,33.38
2023-02-11T04:09:09.562Z,33.90
2023-02-11T04:11:17.394Z,32.90
2023-02-11T04:13:25.345Z,32.20
2023-02-11T04:15:33.260Z,32.38
2023-02-11T04:17:41.804Z,33.72
2023-02-11T04:19:49.588Z,34.38
2023-02-11T04:22:00.294Z,32.80
2023-02-11T04:24:24.200Z,33.47
2023-02-11T04:26:32.325Z,31.55
2023-02-11T04:28:40.276Z,30.38
2023-02-11T04:30:48.099Z,32.47
2023-02-11T04:32:56.713Z,32.95
2023-02-11T04:35:05.190Z,32.97
2023-02-11T04:37:17.469Z,31.80
2023-02-11T04:39:25.408Z,33.55
2023-02-11T04:41:33.316Z,34.65
2023-02-11T04:43:41.082Z,33.33
2023-02-11T04:45:49.408Z,32.80
2023-02-11T04:47:57.405Z,33.45
2023-02-11T04:50:05.634Z,33.35
2023-02-11T04:52:17.316Z,29.98
2023-02-11T04:54:25.285Z,33.03
2023-02-11T04:56:33.382Z,36.05
2023-02-11T04:58:41.384Z,35.53
2023-02-11T05:00:49.983Z,33.75
2023-02-11T05:02:57.913Z,35.90
2023-02-11T05:05:06.352Z,34.42
2023-02-11T05:07:17.092Z,34.17
2023-02-11T05:09:24.922Z,32.85
2023-02-11T05:11:32.636Z,33.03
2023-02-11T05:13:40.655Z,33.10
2023-02-11T05:15:49.203Z,32.75
2023-02-11T05:17:57.272Z,33.15
2023-02-11T05:20:05.020Z,36.15
2023-02-11T05:22:12.895Z,36.47
2023-02-11T05:24:23.710Z,34.25
2023-02-11T05:26:32.021Z,32.47
2023-02-11T05:28:40.548Z,32.60
2023-02-11T05:30:48.400Z,32.90
2023-02-11T05:32:56.931Z,35.50
2023-02-11T05:35:05.169Z,34.10
2023-02-11T05:37:13.117Z,32.67
2023-02-11T05:39:23.919Z,32.50
2023-02-11T05:41:31.879Z,31.67
2023-02-11T05:43:39.971Z,32.42
2023-02-11T05:45:47.750Z,33.70
2023-02-11T05:47:55.988Z,32.33
2023-02-11T05:50:03.823Z,31.15
2023-02-11T05:52:11.643Z,30.70
2023-02-11T05:54:20.030Z,31.10
2023-02-11T05:56:30.993Z,30.42
2023-02-11T05:58:38.893Z,31.00
2023-02-11T06:00:46.863Z,31.08
2023-02-11T06:02:55.525Z,33.05
2023-02-11T06:05:03.486Z,34.97
2023-02-11T06:07:11.518Z,33.17
2023-02-11T06:09:19.332Z,33.15
2023-02-11T06:11:27.153Z,32.65
2023-02-11T06:13:38.306Z,32.80
2023-02-11T06:15:46.512Z,33.33
2023-02-11T06:17:57.311Z,32.42
2023-02-11T06:20:07.125Z,31.80
2023-02-11T06:22:14.946Z,32.15
2023-02-11T06:24:44.286Z,31.27
2023-02-11T06:26:50.787Z,33.33
2023-02-11T06:29:03.177Z,34.35
2023-02-11T06:31:12.174Z,34.08
2023-02-11T06:33:20.069Z,33.30
2023-02-11T06:35:28.035Z,32.00
2023-02-11T06:37:39.437Z,31.38
2023-02-11T06:39:48.035Z,31.30
2023-02-11T06:41:55.997Z,33.72
2023-02-11T06:44:06.972Z,31.63
2023-02-11T06:46:15.625Z,31.30
2023-02-11T06:48:23.597Z,30.50
2023-02-11T06:50:31.620Z,32.03
2023-02-11T06:52:39.416Z,30.48
2023-02-11T06:54:47.114Z,32.67
2023-02-11T06:56:55.036Z,33.38
2023-02-11T06:59:03.588Z,34.03
2023-02-11T07:01:17.271Z,31.48
2023-02-11T07:03:25.059Z,34.40
2023-02-11T07:05:34.402Z,33.47
2023-02-11T07:07:42.298Z,31.75
2023-02-11T07:09:50.223Z,32.05
2023-02-11T07:11:58.428Z,32.78
2023-02-11T07:14:08.814Z,34.75
2023-02-11T07:16:22.055Z,32.08
2023-02-11T07:18:29.934Z,33.85
2023-02-11T07:20:39.736Z,31.90
2023-02-11T07:22:47.506Z,33.55
2023-02-11T07:24:55.496Z,32.83
2023-02-11T07:27:03.397Z,32.15
2023-02-11T07:29:11.219Z,34.20
2023-02-11T07:31:23.781Z,31.17
2023-02-11T07:33:31.756Z,33.67
2023-02-11T07:35:41.687Z,32.40
2023-02-11T07:37:50.409Z,32.47
2023-02-11T07:39:58.355Z,34.78
2023-02-11T07:42:06.867Z,33.63
2023-02-11T07:44:14.841Z,34.10
2023-02-11T07:46:27.797Z,32.30
2023-02-11T07:48:36.413Z,33.13
2023-02-11T07:50:44.191Z,32.53
2023-02-11T07:52:52.214Z,32.78
2023-02-11T07:55:00.088Z,34.75
2023-02-11T07:57:09.574Z,32.53
2023-02-11T07:59:17.439Z,33.60
2023-02-11T08:01:29.068Z,31.50
2023-02-11T08:03:37.710Z,33.35
2023-02-11T08:05:45.451Z,32.20
2023-02-11T08:07:55.183Z,33.40
2023-02-11T08:10:03.014Z,31.60
2023-02-11T08:12:10.959Z,34.50
2023-02-11T08:14:18.911Z,35.35
2023-02-11T08:16:31.598Z,34.20
2023-02-11T08:18:42.088Z,33.03
2023-02-11T08:20:50.830Z,34.67
2023-02-11T08:22:59.316Z,33.42
2023-02-11T08:25:08.053Z,33.58
2023-02-11T08:27:15.933Z,32.20
2023-02-11T08:29:23.905Z,33.30
2023-02-11T08:31:38.152Z,33.38
2023-02-11T08:33:46.592Z,33.78
2023-02-11T08:35:54.420Z,32.50
2023-02-11T08:38:05.180Z,33.08
2023-02-11T08:40:13.807Z,34.67
2023-02-11T08:42:21.818Z,32.95
2023-02-11T08:44:30.138Z,34.47
2023-02-11T08:46:40.924Z,31.02
2023-02-11T08:48:50.282Z,32.28
2023-02-11T08:51:00.856Z,33.03
2023-02-11T08:53:08.994Z,32.83
2023-02-11T08:55:16.738Z,34.60
2023-02-11T08:57:24.635Z,35.10
2023-02-11T08:59:33.199Z,33.88
2023-02-11T09:01:44.417Z,34.75
2023-02-11T09:03:52.811Z,33.28
2023-02-11T09:06:01.066Z,35.75
2023-02-11T09:08:08.906Z,36.03
2023-02-11T09:10:17.068Z,34.17
2023-02-11T09:12:25.009Z,36.05
2023-02-11T09:14:33.084Z,35.33
2023-02-11T09:16:46.457Z,36.90
2023-02-11T09:18:54.820Z,35.90
2023-02-11T09:21:08.324Z,32.65
2023-02-11T09:23:18.539Z,35.10
2023-02-11T09:25:26.532Z,35.13
2023-02-11T09:27:34.299Z,33.28
2023-02-11T09:29:42.373Z,33.38
2023-02-11T09:31:52.990Z,31.85
2023-02-11T09:34:03.757Z,34.22
2023-02-11T09:36:12.446Z,34.03
2023-02-11T09:38:20.223Z,34.38
2023-02-11T09:40:28.122Z,33.75
2023-02-11T09:42:46.692Z,31.38
2023-02-11T09:44:55.323Z,30.20
2023-02-11T09:47:07.967Z,30.98
2023-02-11T09:49:23.365Z,29.98
2023-02-11T09:51:39.430Z,27.25
2023-02-11T09:53:47.506Z,29.38
2023-02-11T09:55:59.707Z,30.25
2023-02-11T09:58:15.160Z,29.38
2023-02-11T10:00:26.687Z,27.27
2023-02-11T10:02:50.054Z,27.52
2023-02-11T10:05:16.564Z,28.80
2023-02-11T10:07:32.491Z,28.02
2023-02-11T10:09:53.029Z,28.92
2023-02-11T10:12:14.312Z,28.98
2023-02-11T10:14:37.891Z,29.85
2023-02-11T10:16:58.313Z,29.95
2023-02-11T10:19:22.866Z,32.83
2023-02-11T10:21:42.513Z,34.38
2023-02-11T10:23:54.484Z,33.10
2023-02-11T10:26:03.340Z,33.22
2023-02-11T10:28:17.410Z,33.05
2023-02-11T10:30:33.734Z,33.03
2023-02-11T10:32:47.258Z,32.38
2023-02-11T10:35:01.792Z,29.90
2023-02-11T10:37:09.659Z,30.15
2023-02-11T10:39:19.491Z,31.05
2023-02-11T10:41:33.321Z,31.35
2023-02-11T10:43:41.810Z,31.90
2023-02-11T10:45:52.364Z,32.28
2023-02-11T10:48:00.469Z,29.08
2023-02-11T10:50:22.631Z,29.77
2023-02-11T10:52:31.425Z,31.35
2023-02-11T10:54:39.248Z,31.05
2023-02-11T10:56:50.215Z,30.05
2023-02-11T10:59:02.418Z,28.58
2023-02-11T11:01:24.012Z,29.60
2023-02-11T11:03:39.126Z,28.58
2023-02-11T11:05:55.562Z,28.10
2023-02-11T11:08:08.455Z,30.40
2023-02-11T11:10:31.377Z,31.13
2023-02-11T11:12:49.663Z,29.88
2023-02-11T11:15:01.452Z,29.23
2023-02-11T11:17:21.977Z,29.55
2023-02-11T11:19:30.268Z,30.75
2023-02-11T11:21:45.958Z,26.55
2023-02-11T11:23:57.426Z,22.83
2023-02-11T11:26:09.621Z,20.15
2023-02-11T11:28:25.080Z,20.48
2023-02-11T11:30:42.174Z,22.00
2023-02-11T11:32:50.373Z,20.55
2023-02-11T11:35:00.151Z,18.50
2023-02-11T11:37:22.193Z,18.48
2023-02-11T11:39:32.655Z,25.80
2023-02-11T11:41:52.794Z,29.05
2023-02-11T11:44:07.081Z,28.77
2023-02-11T11:46:15.312Z,31.25
2023-02-11T11:48:28.093Z,27.05
2023-02-11T11:50:44.762Z,27.80
2023-02-11T11:53:00.346Z,28.10
2023-02-11T11:55:19.510Z,25.15
2023-02-11T11:57:31.463Z,23.27
2023-02-11T11:59:39.929Z,23.05
2023-02-11T12:02:02.196Z,24.35
2023-02-11T12:04:38.359Z,23.25
2023-02-11T12:06:59.024Z,24.58
2023-02-11T12:09:18.959Z,22.60
2023-02-11T12:11:33.407Z,21.00
2023-02-11T12:14:09.418Z,19.02
2023-02-11T12:16:26.099Z,18.05
2023-02-11T12:18:59.567Z,17.33
2023-02-11T12:21:29.670Z,16.55
2023-02-11T12:23:51.232Z,19.45
2023-02-11T12:26:11.030Z,19.25
2023-02-11T12:28:32.079Z,18.45
2023-02-11T12:31:04.525Z,18.10
2023-02-11T12:33:23.015Z,18.35
2023-02-11T12:35:41.878Z,18.42
2023-02-11T12:38:08.642Z,17.27
2023-02-11T12:40:22.057Z,18.05
2023-02-11T12:43:07.003Z,18.10
2023-02-11T12:45:28.494Z,18.95
2023-02-11T12:47:47.637Z,18.15
2023-02-11T12:50:12.206Z,18.30
2023-02-11T12:52:32.882Z,16.92
2023-02-11T12:54:46.801Z,17.10
2023-02-11T12:57:02.930Z,16.60
2023-02-11T12:59:20.069Z,17.08
2023-02-11T13:01:32.328Z,17.73
2023-02-11T13:03:44.481Z,16.05
2023-02-11T13:05:56.313Z,16.35
2023-02-11T13:08:08.693Z,16.05
2023-02-11T13:10:28.069Z,15.95
2023-02-11T13:12:50.763Z,14.32
2023-02-11T13:15:05.587Z,13.73
2023-02-11T13:17:20.170Z,13.30
2023-02-11T13:19:35.030Z,14.43
2023-02-11T13:22:03.131Z,12.23
2023-02-11T13:24:21.949Z,11.32
2023-02-11T13:26:36.388Z,11.68
2023-02-11T13:28:52.165Z,11.45
2023-02-11T13:31:07.282Z,10.88
2023-02-11T13:33:24.757Z,10.00
2023-02-11T13:35:34.801Z,10.25
2023-02-11T13:37:43.184Z,10.98
2023-02-11T13:40:00.568Z,9.80
2023-02-11T13:42:08.677Z,10.60
2023-02-11T13:44:26.479Z,10.98
2023-02-11T13:46:57.341Z,10.73
2023-02-11T13:49:05.558Z,11.60
2023-02-11T13:51:16.209Z,10.15
2023-02-11T13:53:24.872Z,11.05
2023-02-11T13:55:35.040Z,10.25
2023-02-11T13:57:43.615Z,11.38
2023-02-11T13:59:54.256Z,10.80
2023-02-11T14:02:35.783Z,11.55
2023-02-11T14:05:17.704Z,10.52
2023-02-11T14:07:44.323Z,12.07
2023-02-11T14:09:53.486Z,12.65
2023-02-11T14:12:27.179Z,12.90
2023-02-11T14:14:36.333Z,13.25
2023-02-11T14:17:27.831Z,14.38
2023-02-11T14:19:40.281Z,14.88
2023-02-11T14:21:49.651Z,14.48
2023-02-11T14:24:32.466Z,13.23
2023-02-11T14:26:51.347Z,14.52
2023-02-11T14:29:05.512Z,13.95
2023-02-11T14:31:16.361Z,14.10
2023-02-11T14:34:05.376Z,12.35
2023-02-11T14:36:37.056Z,12.70
2023-02-11T14:39:01.708Z,13.90
2023-02-11T14:41:13.705Z,14.25
2023-02-11T14:43:29.551Z,14.65
2023-02-11T14:45:40.602Z,15.32
2023-02-11T14:47:55.515Z,14.52
2023-02-11T14:50:03.336Z,14.52
2023-02-11T14:52:30.201Z,13.77
2023-02-11T14:54:39.985Z,13.52
2023-02-11T14:56:48.493Z,14.70
2023-02-11T14:58:58.327Z,15.50
2023-02-11T15:01:10.755Z,16.17
2023-02-11T15:03:32.777Z,15.45
2023-02-11T15:05:40.627Z,16.05
2023-02-11T15:07:54.308Z,15.43
2023-02-11T15:10:02.361Z,17.17
2023-02-11T15:12:20.826Z,15.32
2023-02-11T15:14:31.615Z,15.02
2023-02-11T15:16:44.883Z,16.15
2023-02-11T15:18:56.090Z,14.80
2023-02-11T15:21:04.329Z,15.90
2023-02-11T15:23:24.010Z,14.82
2023-02-11T15:25:34.182Z,16.30
2023-02-11T15:27:43.112Z,16.38
2023-02-11T15:29:53.131Z,15.27
2023-02-11T15:32:09.731Z,14.95
2023-02-11T15:34:17.494Z,16.00
2023-02-11T15:36:28.999Z,15.57
2023-02-11T15:38:40.233Z,17.98
2023-02-11T15:40:56.606Z,17.20
2023-02-11T15:43:08.377Z,17.52
2023-02-11T15:45:29.112Z,17.92
2023-02-11T15:47:37.259Z,16.42
2023-02-11T15:49:48.147Z,17.85
2023-02-11T15:51:59.830Z,18.10
2023-02-11T15:54:20.080Z,17.42
2023-02-11T15:56:33.307Z,17.40
2023-02-11T15:58:42.244Z,18.35
2023-02-11T16:00:52.327Z,18.08
2023-02-11T16:03:00.428Z,17.08
2023-02-11T16:05:11.078Z,19.55
2023-02-11T16:07:42.461Z,16.90
2023-02-11T16:10:00.690Z,17.17
2023-02-11T16:12:27.189Z,17.15
2023-02-11T16:14:39.526Z,18.55
2023-02-11T16:16:51.292Z,17.00
2023-02-11T16:19:05.133Z,16.58
2023-02-11T16:21:19.783Z,17.48
2023-02-11T16:23:30.582Z,18.20
2023-02-11T16:25:40.930Z,17.10
2023-02-11T16:27:52.505Z,18.55
2023-02-11T16:30:01.505Z,17.75
2023-02-11T16:32:11.437Z,18.25
2023-02-11T16:34:21.819Z,16.23
2023-02-11T16:36:30.149Z,17.88
2023-02-11T16:38:38.558Z,18.17
2023-02-11T16:40:50.162Z,20.13
2023-02-11T16:42:58.349Z,19.23
2023-02-11T16:45:06.893Z,20.63
2023-02-11T16:47:22.299Z,18.98
2023-02-11T16:49:33.101Z,19.65
2023-02-11T16:51:43.864Z,21.48
2023-02-11T16:53:51.706Z,19.90
2023-02-11T16:56:02.055Z,19.95
2023-02-11T16:58:11.558Z,20.30
2023-02-11T17:00:20.873Z,20.52
2023-02-11T17:02:30.608Z,18.40
2023-02-11T17:04:38.618Z,20.23
2023-02-11T17:06:48.482Z,20.33
2023-02-11T17:08:58.852Z,20.63
2023-02-11T17:11:09.478Z,21.25
2023-02-11T17:13:17.454Z,22.65
2023-02-11T17:15:25.279Z,22.20
2023-02-11T17:17:33.273Z,21.88
2023-02-11T17:19:42.069Z,21.05
2023-02-11T17:21:52.156Z,21.17
2023-02-11T17:24:00.129Z,23.10
2023-02-11T17:26:11.242Z,23.17
2023-02-11T17:28:19.085Z,21.77
2023-02-11T17:30:29.774Z,23.02
2023-02-11T17:32:37.670Z,23.17
2023-02-11T17:34:45.577Z,20.83
2023-02-11T17:36:53.642Z,22.65
2023-02-11T17:39:01.873Z,22.45
2023-02-11T17:41:12.943Z,21.27
2023-02-11T17:43:20.964Z,22.77
2023-02-11T17:45:28.836Z,22.33
2023-02-11T17:47:36.659Z,22.40
2023-02-11T17:49:45.153Z,22.63
2023-02-11T17:51:52.977Z,24.15
2023-02-11T17:54:02.321Z,23.10
2023-02-11T17:56:12.923Z,24.10
2023-02-11T17:58:20.899Z,24.60
2023-02-11T18:00:28.950Z,22.73
2023-02-11T18:02:36.752Z,22.10
2023-02-11T18:04:44.958Z,23.45
2023-02-11T18:06:53.740Z,24.75
2023-02-11T18:09:02.542Z,25.80
2023-02-11T18:11:16.434Z,23.52
2023-02-11T18:13:24.530Z,23.58
2023-02-11T18:15:32.323Z,24.98
2023-02-11T18:17:40.744Z,21.95
2023-02-11T18:19:48.768Z,23.70
2023-02-11T18:21:58.062Z,24.08
2023-02-11T18:24:08.623Z,25.40
2023-02-11T18:26:21.058Z,25.23
2023-02-11T18:28:29.012Z,24.08
2023-02-11T18:30:37.148Z,23.70
2023-02-11T18:32:45.096Z,24.33
2023-02-11T18:34:52.888Z,24.90
2023-02-11T18:37:00.810Z,25.40
2023-02-11T18:39:08.661Z,24.73
2023-02-11T18:41:19.670Z,25.75
2023-02-11T18:43:31.759Z,26.10
2023-02-11T18:45:39.600Z,26.90
2023-02-11T18:47:47.447Z,27.17
2023-02-11T18:49:55.453Z,26.38
2023-02-11T18:52:03.472Z,26.42
2023-02-11T18:54:11.373Z,24.05
2023-02-11T18:56:23.205Z,25.85
2023-02-11T18:58:31.043Z,24.58
2023-02-11T19:00:41.788Z,24.52
2023-02-11T19:02:49.914Z,24.92
2023-02-11T19:04:57.802Z,24.50
2023-02-11T19:07:06.646Z,26.40
2023-02-11T19:09:19.053Z,24.80
2023-02-11T19:11:42.062Z,26.23
2023-02-11T19:13:51.460Z,25.02
2023-02-11T19:15:59.272Z,25.92
2023-02-11T19:18:07.518Z,25.73
2023-02-11T19:20:18.031Z,24.73
2023-02-11T19:22:26.032Z,24.80
2023-02-11T19:24:34.041Z,29.33
2023-02-11T19:26:45.128Z,32.33
2023-02-11T19:28:53.172Z,31.63
2023-02-11T19:31:01.366Z,32.75
2023-02-11T19:33:10.297Z,31.63
2023-02-11T19:35:18.662Z,33.42
2023-02-11T19:37:26.488Z,32.42
2023-02-11T19:39:34.546Z,32.47
2023-02-11T19:41:45.090Z,31.40
2023-02-11T19:43:56.756Z,33.25
2023-02-11T19:46:04.864Z,32.60
2023-02-11T19:48:15.782Z,30.92
2023-02-11T19:50:23.955Z,30.67
2023-02-11T19:52:32.091Z,31.25
2023-02-11T19:54:42.532Z,29.77
2023-02-11T19:56:53.238Z,29.20
2023-02-11T19:59:01.035Z,28.52
2023-02-11T20:01:10.443Z,28.25
2023-02-11T20:03:18.307Z,26.58
2023-02-11T20:05:26.229Z,26.10
2023-02-11T20:07:34.245Z,28.23
2023-02-11T20:09:42.696Z,28.40
2023-02-11T20:11:53.285Z,28.27
2023-02-11T20:14:02.219Z,27.70
2023-02-11T20:16:12.482Z,28.45
2023-02-11T20:18:20.325Z,27.67
2023-02-11T20:20:28.265Z,27.75
2023-02-11T20:22:36.391Z,26.80
2023-02-11T20:24:44.462Z,26.58
2023-02-11T20:26:56.092Z,26.10
2023-02-11T20:29:05.047Z,26.65
2023-02-11T20:31:14.177Z,26.75
2023-02-11T20:33:22.116Z,27.83
2023-02-11T20:35:29.942Z,27.63
2023-02-11T20:37:38.927Z,27.33
2023-02-11T20:39:48.273Z,26.80
2023-02-11T20:41:59.545Z,27.65
2023-02-11T20:44:10.574Z,27.65
2023-02-11T20:46:21.951Z,27.77
2023-02-11T20:48:29.904Z,29.35
2023-02-11T20:50:38.257Z,27.60
2023-02-11T20:52:46.447Z,28.15
2023-02-11T20:54:54.467Z,30.05
2023-02-11T20:57:04.915Z,29.95
2023-02-11T20:59:14.625Z,29.45
2023-02-11T21:01:25.134Z,32.55
2023-02-11T21:03:33.100Z,30.80
2023-02-11T21:05:41.093Z,31.25
2023-02-11T21:07:49.084Z,31.75
2023-02-11T21:09:57.047Z,31.75
2023-02-11T21:12:08.911Z,30.13
2023-02-11T21:14:17.997Z,29.25
2023-02-11T21:16:26.106Z,30.77
2023-02-11T21:18:34.369Z,29.83
2023-02-11T21:20:42.351Z,29.35
2023-02-11T21:22:50.326Z,30.40
2023-02-11T21:24:58.480Z,30.15
2023-02-11T21:27:09.256Z,32.03
2023-02-11T21:29:17.382Z,35.30
2023-02-11T21:31:27.453Z,33.28
2023-02-11T21:33:36.361Z,34.33
2023-02-11T21:35:44.152Z,34.08
2023-02-11T21:37:51.989Z,31.35
2023-02-11T21:39:59.755Z,30.35
2023-02-11T21:42:10.591Z,33.25
2023-02-11T21:44:18.687Z,33.75
2023-02-11T21:46:26.582Z,34.13
2023-02-11T21:48:34.595Z,36.58
2023-02-11T21:50:43.302Z,35.70
2023-02-11T21:52:50.975Z,34.15
2023-02-11T21:54:58.975Z,34.05
2023-02-11T21:57:06.917Z,32.33
2023-02-11T21:59:18.027Z,33.90
2023-02-11T22:01:27.914Z,32.80
2023-02-11T22:03:35.799Z,32.65
2023-02-11T22:05:44.043Z,32.30
2023-02-11T22:07:52.477Z,32.17
2023-02-11T22:10:00.326Z,34.22
2023-02-11T22:12:08.927Z,33.08
2023-02-11T22:14:22.121Z,33.65
2023-02-11T22:16:30.937Z,34.22
2023-02-11T22:18:39.431Z,32.33
2023-02-11T22:20:47.264Z,35.47
2023-02-11T22:22:55.212Z,35.80
2023-02-11T22:25:10.896Z,35.95
2023-02-11T22:27:20.810Z,36.38
2023-02-11T22:29:31.519Z,34.20
2023-02-11T22:31:39.784Z,34.75
2023-02-11T22:33:49.697Z,34.10
2023-02-11T22:36:01.636Z,35.15
2023-02-11T22:38:09.466Z,32.45
2023-02-11T22:40:17.572Z,35.42
2023-02-11T22:42:26.154Z,34.33
2023-02-11T22:44:36.653Z,34.33
2023-02-11T22:46:44.521Z,35.00
2023-02-11T22:48:52.915Z,37.72
2023-02-11T22:51:17.625Z,36.58
2023-02-11T22:53:27.365Z,37.58
2023-02-11T22:55:41.181Z,35.63
2023-02-11T22:57:50.069Z,35.75
2023-02-11T23:00:00.583Z,36.97
2023-02-11T23:02:08.599Z,36.92
2023-02-11T23:04:19.356Z,34.67
2023-02-11T23:06:27.514Z,33.53
2023-02-11T23:08:40.610Z,34.72
2023-02-11T23:10:49.429Z,34.45
2023-02-11T23:13:00.322Z,33.65
2023-02-11T23:15:11.402Z,33.08
2023-02-11T23:17:19.689Z,34.60
2023-02-11T23:19:27.584Z,34.13
2023-02-11T23:21:38.336Z,34.08
2023-02-11T23:23:47.464Z,32.75
2023-02-11T23:25:55.685Z,34.33
2023-02-11T23:28:04.025Z,33.72
2023-02-11T23:30:18.086Z,32.22
2023-02-11T23:32:27.048Z,36.28
2023-02-11T23:34:34.885Z,35.28
2023-02-11T23:36:42.915Z,33.83
2023-02-11T23:38:51.253Z,34.88
2023-02-11T23:40:59.096Z,34.17
2023-02-11T23:43:07.102Z,33.67
2023-02-11T23:45:17.922Z,32.15
2023-02-11T23:47:25.937Z,34.22
2023-02-11T23:49:34.012Z,37.13
2023-02-11T23:51:41.828Z,36.15
2023-02-11T23:53:49.784Z,36.83
2023-02-11T23:55:57.686Z,35.97
2023-02-11T23:58:05.559Z,38.20
